This is the latest recevied weather packets stored in our database for station/object IZ1UKX-13. If no packets are shown the sender has not sent any weather packets the latest 10 day(s).
| Time | Temp. | Humidity | Pressure | Rain* | Wind** | Luminosity | Snow |
|---|---|---|---|---|---|---|---|
| 1787754850 | 28.33° C | 65% | 1021.4 hPa | 0 mm | - | 0 W/m² | - |
| 1787754550 | 28.33° C | 66% | 1021.4 hPa | 0 mm | - | 0 W/m² | - |
| 1787754250 | 28.33° C | 66% | 1021 hPa | 0 mm | - | 0 W/m² | - |
| 1787753950 | 28.89° C | 66% | 1021 hPa | 0 mm | - | 0 W/m² | - |
| 1787753650 | 28.33° C | 66% | 1021 hPa | 0 mm | - | 0 W/m² | - |
| 1787753350 | 28.33° C | 67% | 1021.4 hPa | 0 mm | - | 0 W/m² | - |
| 1787753055 | 27.78° C | 67% | 1021.4 hPa | 0 mm | - | 0 W/m² | - |
| 1787752750 | 27.78° C | 66% | 1021.4 hPa | 0 mm | - | 0 W/m² | - |
| 1787752449 | 27.78° C | 65% | 1021.4 hPa | 0 mm | - | 0 W/m² | - |
| 1787752149 | 27.78° C | 65% | 1021.4 hPa | 0 mm | - | 0 W/m² | - |
| 1787751850 | 27.78° C | 65% | 1021.4 hPa | 0 mm | - | 0 W/m² | - |
| 1787751550 | 28.89° C | 62% | 1021 hPa | 0 mm | - | 0 W/m² | - |
| 1787751250 | 29.44° C | 61% | 1021 hPa | 0 mm | - | 0 W/m² | - |
| 1787750950 | 29.44° C | 61% | 1021 hPa | 0 mm | - | 0 W/m² | - |
| 1787750650 | 29.44° C | 59% | 1021 hPa | 0 mm | - | 0 W/m² | - |
| 1787750350 | 30° C | 58% | 1021 hPa | 0 mm | - | 0 W/m² | - |
| 1787750050 | 30° C | 59% | 1021 hPa | 0 mm | - | 0 W/m² | - |
| 1787749749 | 30.56° C | 58% | 1021 hPa | 0 mm | - | 0 W/m² | - |
| 1787749454 | 30° C | 57% | 1021 hPa | 0 mm | - | 0 W/m² | - |
| 1787749149 | 29.44° C | 60% | 1021 hPa | 0 mm | - | 0 W/m² | - |
| 1787748851 | 29.44° C | 59% | 1021 hPa | 0 mm | - | 0 W/m² | - |
| 1787748550 | 29.44° C | 61% | 1021 hPa | 0 mm | - | 0 W/m² | - |
| 1787748250 | 28.89° C | 65% | 1021 hPa | 0 mm | - | 0 W/m² | - |
| 1787747949 | 27.78° C | 67% | 1021.4 hPa | 0 mm | - | 0 W/m² | - |
| 1787747650 | 27.22° C | 69% | 1021.4 hPa | 0 mm | - | 0 W/m² | - |
* Rain latest hour (hover to see other rain measurements)
** Current wind speed in m/s (hover to see current wind gust speed)